Time;durP1;ratioP1;P1;durP2;ratioP2;P2;SDS_P1;SDS_P2;PMS_P1;PMS_P2;Temp;Humidity;BMP_temperature;BMP_pressure;BME280_temperature;BME280_humidity;BME280_pressure;Samples;Min_cycle;Max_cycle;Signal;HPM_P1;HPM_P2
2021/07/19 00:01:35;;;;;;;8.43;7.38;;;;;;;19.28;72.82;100538.19;4976056;28;20050;-67
2021/07/19 00:04:22;;;;;;;9.90;7.53;;;;;;;19.26;73.02;100530.34;4976001;28;20190;-69
2021/07/19 00:07:07;;;;;;;8.15;7.35;;;;;;;19.25;72.72;100532.97;4989540;28;20542;-67
2021/07/19 00:09:59;;;;;;;8.40;7.60;;;;;;;19.23;72.92;100530.38;4976312;28;20098;-68
2021/07/19 00:12:55;;;;;;;8.48;7.05;;;;;;;19.22;73.13;100528.63;4976401;28;20066;-67
2021/07/19 00:15:47;;;;;;;8.23;7.40;;;;;;;19.20;72.77;100527.78;4976597;28;20085;-68
2021/07/19 00:18:40;;;;;;;8.77;7.93;;;;;;;19.20;73.06;100527.78;4975634;28;20073;-67
2021/07/19 00:21:33;;;;;;;10.93;7.45;;;;;;;19.19;73.03;100525.19;4974854;28;20046;-68
2021/07/19 00:24:25;;;;;;;9.45;8.43;;;;;;;19.15;72.86;100525.22;4976083;28;20147;-68
2021/07/19 00:27:12;;;;;;;10.07;7.63;;;;;;;19.15;72.93;100526.97;4974812;28;20101;-67
2021/07/19 00:29:57;;;;;;;8.60;7.50;;;;;;;19.13;73.19;100511.22;4975573;28;20473;-67
2021/07/19 00:32:49;;;;;;;;;;;;;;;19.08;73.08;100515.66;4975894;28;20526;-67
2021/07/19 00:35:41;;;;;;;9.20;7.07;;;;;;;19.09;72.95;100516.53;4974894;28;19961;-69
2021/07/19 00:38:30;;;;;;;9.95;8.07;;;;;;;19.05;72.90;100520.97;4974757;28;20057;-68
2021/07/19 00:41:21;;;;;;;9.52;8.43;;;;;;;19.01;72.87;100524.50;4974643;28;20045;-67
2021/07/19 00:44:11;;;;;;;8.63;7.22;;;;;;;18.97;73.08;100526.31;4974550;28;20130;-68
2021/07/19 00:47:01;;;;;;;9.32;7.28;;;;;;;18.93;73.09;100519.31;4974504;28;20402;-67
2021/07/19 00:49:53;;;;;;;10.07;7.25;;;;;;;18.91;72.92;100522.84;4974760;28;20053;-67
2021/07/19 00:52:43;;;;;;;9.18;7.13;;;;;;;18.87;72.87;100520.25;4974764;28;20101;-67
2021/07/19 00:55:48;;;;;;;9.23;7.32;;;;;;;18.83;72.96;100517.69;4975445;28;20097;-67
2021/07/19 00:58:41;;;;;;;9.82;8.52;;;;;;;18.82;72.95;100521.19;4974629;28;20398;-67
2021/07/19 01:01:33;;;;;;;10.20;8.35;;;;;;;18.81;73.13;100516.81;4975291;28;20197;-68
2021/07/19 01:04:30;;;;;;;9.20;8.20;;;;;;;18.79;73.31;100513.34;4954842;29;20139;-69
2021/07/19 01:07:25;;;;;;;8.35;7.00;;;;;;;18.79;73.03;100519.44;4955448;29;20117;-69
2021/07/19 01:10:17;;;;;;;10.20;7.15;;;;;;;18.77;73.12;100515.97;4955235;29;20046;-67
2021/07/19 01:13:12;;;;;;;11.73;7.63;;;;;;;18.78;72.97;100515.06;4954779;29;20046;-67
2021/07/19 01:15:56;;;;;;;9.05;8.05;;;;;;;18.77;73.18;100512.47;4955288;29;20129;-68
2021/07/19 01:18:40;;;;;;;8.65;7.82;;;;;;;18.77;73.35;100509.84;4955543;29;20534;-66
2021/07/19 01:21:47;;;;;;;9.95;8.15;;;;;;;18.76;73.08;100511.63;4955478;29;20573;-66
2021/07/19 01:24:46;;;;;;;13.57;8.73;;;;;;;18.75;73.00;100504.63;4955033;29;20050;-67
2021/07/19 01:28:02;;;;;;;11.45;8.05;;;;;;;18.76;73.18;100505.47;4955082;29;20050;-68
2021/07/19 01:30:54;;;;;;;10.90;8.55;;;;;;;18.74;73.20;100500.25;4954517;29;20102;-67
2021/07/19 01:33:50;;;;;;;9.30;7.75;;;;;;;18.74;73.02;100491.50;4955388;29;20050;-68
2021/07/19 01:36:45;;;;;;;10.63;8.18;;;;;;;18.72;73.18;100495.00;4954877;29;20147;-69
2021/07/19 01:39:36;;;;;;;8.73;7.05;;;;;;;18.71;73.21;100498.50;4954998;29;20049;-67
2021/07/19 01:42:21;;;;;;;12.20;7.85;;;;;;;18.71;73.34;100489.78;4955692;29;20058;-68
2021/07/19 01:45:13;;;;;;;;;;;;;;;18.66;73.13;100497.72;4956097;28;20054;-68
2021/07/19 01:48:10;;;;;;;11.25;8.75;;;;;;;18.66;73.25;100499.47;4954256;29;20297;-67
2021/07/19 01:51:00;;;;;;;8.55;7.57;;;;;;;18.66;73.27;100495.09;4954349;29;20541;-67
2021/07/19 01:53:53;;;;;;;14.90;8.52;;;;;;;18.65;73.30;100498.59;4954155;29;20049;-68
2021/07/19 01:56:47;;;;;;;13.40;8.90;;;;;;;18.63;73.11;100491.59;4955159;29;20581;-68
2021/07/19 01:59:42;;;;;;;12.15;8.60;;;;;;;18.62;73.29;100492.50;4954453;29;20106;-69
2021/07/19 02:02:32;;;;;;;;;;;;;;;18.58;73.33;100489.03;4961079;28;20194;-67
2021/07/19 02:05:17;;;;;;;9.80;7.90;;;;;;;18.56;73.37;100493.44;4973388;28;20281;-68
2021/07/19 02:08:02;;;;;;;8.70;7.70;;;;;;;18.55;73.32;100491.69;4974482;28;20446;-67
2021/07/19 02:10:59;;;;;;;9.45;7.95;;;;;;;18.54;73.28;100488.19;4974787;28;20050;-68
2021/07/19 02:13:55;;;;;;;10.60;7.78;;;;;;;18.52;73.33;100487.34;4974751;28;20061;-67
2021/07/19 02:16:49;;;;;;;8.95;8.05;;;;;;;18.50;73.39;100494.34;4973165;28;20529;-68
2021/07/19 02:19:43;;;;;;;9.43;7.47;;;;;;;18.49;73.07;100492.63;4974717;28;20093;-68
2021/07/19 02:22:36;;;;;;;9.45;8.35;;;;;;;18.48;73.31;100490.03;4974292;28;20637;-67
2021/07/19 02:25:29;;;;;;;14.15;8.18;;;;;;;18.46;73.33;100492.63;4974691;28;20189;-66
2021/07/19 02:28:16;;;;;;;10.27;8.45;;;;;;;18.44;73.32;100486.56;4974245;28;20069;-67
2021/07/19 02:31:03;;;;;;;9.13;7.78;;;;;;;18.42;73.39;100489.19;4973253;28;20077;-67
2021/07/19 02:33:55;;;;;;;13.15;7.65;;;;;;;18.42;73.26;100493.56;4973438;28;20053;-66
2021/07/19 02:36:46;;;;;;;9.88;7.80;;;;;;;18.42;73.62;100493.56;4973890;28;20105;-68
2021/07/19 02:39:39;;;;;;;9.80;8.25;;;;;;;18.41;73.44;100497.94;4973487;28;20137;-68
2021/07/19 02:42:29;;;;;;;13.90;8.75;;;;;;;18.39;73.37;100493.59;4978014;28;20125;-68
2021/07/19 02:45:24;;;;;;;9.43;7.90;;;;;;;18.37;73.44;100490.13;4976790;28;20133;-67
2021/07/19 02:48:15;;;;;;;11.55;8.63;;;;;;;18.34;73.34;100492.75;4977183;28;20517;-67
2021/07/19 02:51:10;;;;;;;12.43;8.20;;;;;;;18.32;73.27;100499.75;4976801;28;20045;-68
2021/07/19 02:53:55;;;;;;;10.50;8.18;;;;;;;18.30;73.54;100489.31;4977481;28;20049;-66
2021/07/19 02:56:49;;;;;;;11.32;8.18;;;;;;;18.28;73.32;100491.06;4976971;28;20073;-66
2021/07/19 02:59:44;;;;;;;12.20;8.57;;;;;;;18.26;73.36;100482.34;4977889;28;20062;-66
2021/07/19 03:02:41;;;;;;;9.30;8.27;;;;;;;18.22;73.43;100484.13;4977635;28;20069;-67
2021/07/19 03:05:43;;;;;;;10.48;7.80;;;;;;;18.21;73.34;100486.78;4976239;28;20569;-67
2021/07/19 03:08:39;;;;;;;10.02;8.50;;;;;;;18.20;73.63;100477.16;4976146;28;20557;-67
2021/07/19 03:11:45;;;;;;;9.23;8.23;;;;;;;18.18;73.35;100477.16;4977596;28;20061;-66
2021/07/19 03:14:34;;;;;;;10.35;8.15;;;;;;;18.17;73.37;100470.16;4976273;28;20569;-68
2021/07/19 03:17:28;;;;;;;9.38;8.40;;;;;;;18.13;73.55;100473.72;4976009;28;20058;-67
2021/07/19 03:20:24;;;;;;;9.13;8.23;;;;;;;18.13;73.41;100468.47;4976104;28;20045;-67
2021/07/19 03:23:26;;;;;;;10.85;7.80;;;;;;;18.11;73.30;100470.22;4976416;28;20054;-68
2021/07/19 03:26:19;;;;;;;9.65;8.00;;;;;;;18.10;73.30;100466.72;4976043;28;20042;-67
2021/07/19 03:29:12;;;;;;;9.55;7.82;;;;;;;18.06;73.39;100467.63;4976370;28;20167;-66
2021/07/19 03:32:06;;;;;;;10.48;7.72;;;;;;;18.06;73.39;100467.63;4976711;28;20104;-67
2021/07/19 03:34:56;;;;;;;10.50;7.90;;;;;;;18.06;73.45;100472.00;4977017;28;20057;-67
2021/07/19 03:37:40;;;;;;;9.38;8.43;;;;;;;18.05;73.49;100470.28;4975955;28;20045;-67
2021/07/19 03:40:37;;;;;;;9.30;8.38;;;;;;;18.04;73.59;100471.16;4975691;28;20069;-66
2021/07/19 03:43:33;;;;;;;10.35;8.27;;;;;;;18.02;73.36;100478.16;4976815;28;20041;-68
2021/07/19 03:46:24;;;;;;;9.15;8.23;;;;;;;18.02;73.53;100480.78;4975680;28;20539;-68
2021/07/19 03:49:19;;;;;;;9.75;8.57;;;;;;;17.99;73.41;100472.94;4976549;28;20049;-66
2021/07/19 03:52:09;;;;;;;9.63;8.40;;;;;;;17.98;73.49;100481.72;4974767;28;20130;-68
2021/07/19 03:54:55;;;;;;;7.97;6.50;;;;;;;17.96;73.51;100477.31;4975537;28;20138;-68
2021/07/19 03:57:43;;;;;;;7.68;6.38;;;;;;;17.93;73.30;100482.56;4975436;28;20058;-67
2021/07/19 04:00:30;;;;;;;9.45;6.45;;;;;;;17.92;73.55;100487.81;4975433;28;20058;-67
2021/07/19 04:03:26;;;;;;;8.80;7.13;;;;;;;17.91;73.63;100486.94;4975436;28;20057;-68
2021/07/19 04:06:22;;;;;;;8.98;7.13;;;;;;;17.91;73.24;100489.56;4975317;28;20050;-67
2021/07/19 04:09:12;;;;;;;11.98;8.65;;;;;;;17.91;73.34;100491.31;4975681;28;20074;-67
2021/07/19 04:12:05;;;;;;;10.15;9.05;;;;;;;17.92;73.59;100493.06;4975743;28;20045;-67
2021/07/19 04:14:55;;;;;;;11.10;9.32;;;;;;;17.91;73.53;100491.31;4976178;28;20097;-67
2021/07/19 04:17:51;;;;;;;15.38;9.50;;;;;;;17.92;73.61;100487.81;4974918;28;20078;-67
2021/07/19 04:20:43;;;;;;;13.85;8.77;;;;;;;17.92;73.84;100488.69;4976149;28;20138;-66
2021/07/19 04:23:29;;;;;;;10.82;9.40;;;;;;;17.93;73.85;100495.69;4975049;28;20049;-66
2021/07/19 04:26:14;;;;;;;13.25;9.25;;;;;;;17.92;73.61;100495.69;4975211;28;20041;-66
2021/07/19 04:29:09;;;;;;;14.45;8.73;;;;;;;17.91;73.57;100489.56;4975262;28;20422;-67
2021/07/19 04:32:03;;;;;;;15.40;8.45;;;;;;;17.91;73.54;100484.34;4975053;28;20113;-66
2021/07/19 04:34:55;;;;;;;10.18;9.10;;;;;;;17.90;73.50;100485.22;4974646;28;20397;-68
2021/07/19 04:37:50;;;;;;;12.10;8.30;;;;;;;17.90;73.58;100485.22;4975065;28;20402;-67
2021/07/19 04:40:45;;;;;;;;;;;;;;;17.88;73.45;100479.09;4975703;28;20053;-67
2021/07/19 04:43:35;;;;;;;12.35;8.32;;;;;;;17.89;73.91;100482.63;4974814;28;20008;-66
2021/07/19 04:46:18;;;;;;;14.20;9.50;;;;;;;17.91;73.61;100491.31;4974409;28;20049;-68
2021/07/19 04:49:08;;;;;;;10.82;8.98;;;;;;;17.91;73.53;100493.94;4974121;28;20105;-67
2021/07/19 04:51:58;;;;;;;10.23;8.55;;;;;;;17.92;73.68;100490.44;4974324;28;20097;-67
2021/07/19 04:54:53;;;;;;;11.30;9.52;;;;;;;17.91;73.63;100496.56;4974270;28;20545;-66
2021/07/19 04:57:44;;;;;;;11.90;9.20;;;;;;;17.91;73.50;100494.81;4974876;28;20106;-66
2021/07/19 05:00:39;;;;;;;11.50;9.75;;;;;;;17.92;73.89;100495.69;4974135;28;20054;-67
2021/07/19 05:03:38;;;;;;;12.05;9.85;;;;;;;17.93;74.03;100494.78;4973321;28;20483;-67
2021/07/19 05:06:28;;;;;;;12.82;9.95;;;;;;;17.93;73.73;100493.06;4974623;28;20466;-66
2021/07/19 05:09:14;;;;;;;12.60;9.15;;;;;;;17.95;73.91;100499.16;4975557;28;20049;-67
2021/07/19 05:11:59;;;;;;;14.40;9.90;;;;;;;17.95;73.78;100514.91;4974467;28;20569;-66
2021/07/19 05:14:52;;;;;;;12.63;9.95;;;;;;;17.96;73.64;100516.66;4974566;28;20050;-67
2021/07/19 05:17:44;;;;;;;12.20;8.77;;;;;;;17.97;73.77;100507.00;4975259;28;20058;-67
2021/07/19 05:20:39;;;;;;;11.93;9.30;;;;;;;17.98;73.69;100513.19;4974536;28;20049;-68
2021/07/19 05:23:32;;;;;;;15.27;10.65;;;;;;;17.98;73.82;100511.41;4974235;28;20142;-69
2021/07/19 05:26:25;;;;;;;14.02;10.10;;;;;;;17.98;73.68;100506.16;4973835;28;20109;-68
2021/07/19 05:29:14;;;;;;;17.25;10.50;;;;;;;18.00;74.01;100508.75;4974358;28;20514;-66
2021/07/19 05:32:07;;;;;;;15.00;9.77;;;;;;;18.02;73.88;100509.63;4974963;28;20054;-68
2021/07/19 05:34:51;;;;;;;13.80;10.07;;;;;;;18.04;73.81;100508.75;4974623;28;20096;-67
2021/07/19 05:37:41;;;;;;;13.60;10.57;;;;;;;18.05;73.92;100507.00;4973899;28;20118;-67
2021/07/19 05:40:34;;;;;;;14.05;10.20;;;;;;;18.07;74.12;100513.09;4974123;28;20466;-67
2021/07/19 05:43:26;;;;;;;14.38;10.23;;;;;;;18.07;73.87;100508.72;4974362;28;20130;-67
2021/07/19 05:46:19;;;;;;;13.30;10.48;;;;;;;18.09;73.98;100513.97;4974283;28;20101;-68
2021/07/19 05:49:17;;;;;;;13.10;9.75;;;;;;;18.09;74.01;100512.19;4973533;28;20077;-67
2021/07/19 05:52:07;;;;;;;15.63;10.60;;;;;;;18.12;73.88;100519.19;4973897;28;20105;-67
2021/07/19 05:54:59;;;;;;;12.57;10.63;;;;;;;18.14;74.09;100520.00;4974340;28;20139;-69
2021/07/19 05:57:44;;;;;;;13.40;10.43;;;;;;;18.19;74.14;100515.63;4973433;28;20149;-68
2021/07/19 06:00:34;;;;;;;12.65;9.00;;;;;;;18.21;74.16;100524.34;4974686;28;20061;-69
2021/07/19 06:03:27;;;;;;;13.75;10.55;;;;;;;18.21;74.00;100526.97;4974628;28;20058;-67
2021/07/19 06:06:22;;;;;;;12.80;9.80;;;;;;;18.23;73.70;100524.31;4973324;28;20069;-67
2021/07/19 06:09:17;;;;;;;16.10;9.18;;;;;;;18.24;73.99;100524.34;4974829;28;20419;-68
2021/07/19 06:12:10;;;;;;;12.18;9.63;;;;;;;18.26;73.84;100524.31;4974823;28;20049;-67
2021/07/19 06:15:00;;;;;;;13.13;9.95;;;;;;;18.29;74.05;100523.44;4973925;28;20086;-67
2021/07/19 06:17:52;;;;;;;15.95;9.10;;;;;;;18.30;73.99;100528.66;4978440;28;20626;-67
2021/07/19 06:20:36;;;;;;;12.60;8.70;;;;;;;18.32;74.07;100523.38;4978559;28;20046;-67
2021/07/19 06:23:20;;;;;;;10.90;9.70;;;;;;;18.32;74.08;100528.63;4977430;28;20510;-67
2021/07/19 06:26:13;;;;;;;16.70;10.85;;;;;;;18.31;74.04;100522.53;4977649;28;20057;-67
2021/07/19 06:29:06;;;;;;;15.27;9.45;;;;;;;18.34;73.96;100519.88;4977113;28;20098;-67
2021/07/19 06:32:01;;;;;;;11.13;9.05;;;;;;;18.35;73.90;100523.34;4976661;28;20049;-66
2021/07/19 06:34:51;;;;;;;11.88;8.40;;;;;;;18.38;73.88;100520.72;4978351;28;20057;-68
2021/07/19 06:37:42;;;;;;;16.00;9.73;;;;;;;18.39;74.07;100522.47;4977270;28;20206;-67
2021/07/19 06:40:32;;;;;;;11.50;8.43;;;;;;;18.40;74.02;100524.19;4977034;28;20046;-68
2021/07/19 06:43:27;;;;;;;12.25;9.05;;;;;;;18.42;74.12;100527.69;4976533;28;20105;-68
2021/07/19 06:46:14;;;;;;;11.90;8.30;;;;;;;18.46;73.92;100528.53;4976323;28;20077;-67
2021/07/19 06:48:58;;;;;;;12.65;8.40;;;;;;;18.48;74.04;100532.00;4976696;28;20057;-68
2021/07/19 06:51:50;;;;;;;8.65;7.63;;;;;;;18.49;73.92;100539.00;4977098;28;20417;-68
2021/07/19 06:54:40;;;;;;;12.73;7.22;;;;;;;18.49;74.11;100537.22;4976968;28;20132;-67
2021/07/19 06:57:38;;;;;;;10.20;7.78;;;;;;;18.48;73.92;100538.09;4977162;28;20128;-67
2021/07/19 07:00:31;;;;;;;9.40;7.03;;;;;;;18.48;73.99;100534.63;4977756;28;20097;-68
2021/07/19 07:03:24;;;;;;;12.65;7.85;;;;;;;18.47;74.23;100536.38;4976830;28;20422;-67
2021/07/19 07:06:22;;;;;;;10.18;7.20;;;;;;;18.48;73.84;100532.00;4976324;28;20133;-66
2021/07/19 07:09:06;;;;;;;12.48;7.93;;;;;;;18.50;73.85;100536.34;4976183;28;20058;-67
2021/07/19 07:11:50;;;;;;;13.48;7.40;;;;;;;18.52;73.77;100539.84;4977143;28;20062;-68
2021/07/19 07:14:34;;;;;;;9.95;7.18;;;;;;;18.54;74.02;100539.81;4977238;28;20050;-66
2021/07/19 07:17:29;;;;;;;13.32;8.40;;;;;;;18.55;73.74;100539.81;4977152;28;20093;-67
2021/07/19 07:20:28;;;;;;;10.57;7.88;;;;;;;18.56;73.90;100541.56;4976904;28;20054;-67
2021/07/19 07:23:12;;;;;;;13.93;8.07;;;;;;;18.60;74.12;100542.38;4975988;28;20078;-68
2021/07/19 07:25:56;;;;;;;13.82;7.68;;;;;;;18.63;74.30;100544.09;4976742;28;20423;-67
2021/07/19 07:28:40;;;;;;;10.23;7.22;;;;;;;18.64;73.73;100537.97;4976058;28;20051;-67
2021/07/19 07:31:27;;;;;;;11.00;7.65;;;;;;;18.66;73.73;100536.19;4976942;28;20050;-67
2021/07/19 07:34:11;;;;;;;12.30;7.32;;;;;;;18.66;73.67;100536.19;4975577;28;20545;-68
2021/07/19 07:36:55;;;;;;;9.90;7.68;;;;;;;18.68;73.67;100534.44;4976081;28;20517;-68
2021/07/19 07:39:41;;;;;;;9.52;6.60;;;;;;;18.69;73.54;100536.19;4976890;28;20118;-68
2021/07/19 07:42:31;;;;;;;8.32;6.35;;;;;;;18.70;73.88;100538.78;4975731;28;20081;-69
2021/07/19 07:45:18;;;;;;;10.35;7.20;;;;;;;18.71;73.88;100537.03;4976735;28;20173;-67
2021/07/19 07:48:05;;;;;;;13.15;7.43;;;;;;;18.71;73.63;100540.53;4976217;28;20545;-68
2021/07/19 07:50:52;;;;;;;10.73;7.80;;;;;;;18.74;73.81;100546.63;4975722;28;20054;-68
2021/07/19 07:53:38;;;;;;;9.68;7.13;;;;;;;18.74;73.71;100539.63;4975388;28;20049;-68
2021/07/19 07:56:24;;;;;;;8.73;6.38;;;;;;;18.77;73.48;100544.84;4975809;28;20102;-69
2021/07/19 07:59:09;;;;;;;14.48;6.82;;;;;;;18.78;73.64;100541.31;4975875;28;20089;-68
2021/07/19 08:01:53;;;;;;;11.55;7.32;;;;;;;18.78;73.52;100537.84;4976147;28;20399;-69
2021/07/19 08:04:37;;;;;;;17.42;7.18;;;;;;;18.78;73.45;100533.44;4975736;28;20049;-67
2021/07/19 08:07:26;;;;;;;10.30;6.70;;;;;;;18.80;73.59;100528.19;4975285;28;20049;-69
2021/07/19 08:10:14;;;;;;;10.23;6.75;;;;;;;18.81;73.27;100537.81;4975935;28;20183;-67
2021/07/19 08:12:59;;;;;;;10.73;6.90;;;;;;;18.81;73.27;100541.31;4975362;28;20613;-69
2021/07/19 08:15:47;;;;;;;;;;;;;;;18.81;73.44;100540.44;4975493;28;20046;-67
2021/07/19 08:18:40;;;;;;;12.82;7.38;;;;;;;18.82;73.34;100537.78;4989223;28;20024;-68
2021/07/19 08:21:24;;;;;;;13.60;6.88;;;;;;;18.86;73.44;100536.00;4975611;28;20082;-68
2021/07/19 08:24:09;;;;;;;11.50;6.00;;;;;;;18.86;73.28;100544.75;4976244;28;20042;-67
2021/07/19 08:26:58;;;;;;;9.15;5.78;;;;;;;18.87;73.19;100536.00;4975162;28;20050;-68
2021/07/19 08:29:42;;;;;;;9.93;6.47;;;;;;;18.87;73.21;100538.63;4975156;28;20062;-67
2021/07/19 08:32:29;;;;;;;13.98;7.05;;;;;;;18.88;73.17;100539.47;4976135;28;20053;-67
2021/07/19 08:35:19;;;;;;;10.30;6.32;;;;;;;18.91;73.07;100534.19;4975219;28;20181;-68
2021/07/19 08:38:12;;;;;;;11.77;6.15;;;;;;;18.94;73.08;100535.91;4975363;28;20053;-68
2021/07/19 08:41:09;;;;;;;11.93;7.05;;;;;;;18.95;73.28;100538.56;4974586;28;20573;-66
2021/07/19 08:44:06;;;;;;;11.85;6.80;;;;;;;18.98;73.07;100528.03;4974999;28;20411;-67
2021/07/19 08:46:53;;;;;;;13.95;7.53;;;;;;;19.02;73.17;100526.25;4974627;28;20509;-66
2021/07/19 08:49:41;;;;;;;8.13;6.38;;;;;;;19.05;72.96;100530.59;4975778;28;20046;-66
2021/07/19 08:52:26;;;;;;;12.13;8.70;;;;;;;19.06;72.85;100533.22;4975429;28;20513;-69
2021/07/19 08:55:11;;;;;;;13.88;8.25;;;;;;;19.08;72.83;100536.66;4974533;28;20054;-67
2021/07/19 08:58:03;;;;;;;11.30;7.65;;;;;;;19.09;72.83;100527.03;4975174;28;20052;-68
2021/07/19 09:00:56;;;;;;;11.88;8.80;;;;;;;19.09;73.00;100529.66;4975340;28;20453;-66
2021/07/19 09:03:41;;;;;;;14.80;11.25;;;;;;;19.09;72.95;100525.28;4974320;28;20101;-66
2021/07/19 09:06:25;;;;;;;15.93;11.48;;;;;;;19.10;72.78;100513.88;4974194;28;20121;-68
2021/07/19 09:09:12;;;;;;;13.07;10.55;;;;;;;19.11;72.87;100518.25;4975007;28;20405;-68
2021/07/19 09:12:00;;;;;;;15.45;12.38;;;;;;;19.15;72.26;100525.22;4974033;28;20054;-68
2021/07/19 09:14:47;;;;;;;15.88;11.27;;;;;;;19.17;72.89;100522.56;4973912;28;20053;-68
2021/07/19 09:17:36;;;;;;;11.77;9.77;;;;;;;19.19;72.96;100525.19;4974801;28;20054;-67
2021/07/19 09:20:28;;;;;;;16.00;12.27;;;;;;;19.20;72.57;100524.28;4974029;28;20093;-68
2021/07/19 09:23:12;;;;;;;15.70;11.65;;;;;;;19.23;72.65;100524.25;4973802;28;20089;-68
2021/07/19 09:26:08;;;;;;;17.10;12.18;;;;;;;19.25;72.33;100519.84;4973923;28;20049;-68
2021/07/19 09:28:57;;;;;;;17.65;12.77;;;;;;;19.27;72.58;100520.69;4973989;28;20102;-67
2021/07/19 09:31:50;;;;;;;13.80;11.45;;;;;;;19.29;72.19;100518.91;4974773;28;20121;-68
2021/07/19 09:34:34;;;;;;;15.48;11.85;;;;;;;19.30;72.12;100518.03;4974782;28;20046;-67
2021/07/19 09:37:21;;;;;;;17.95;12.88;;;;;;;19.31;72.29;100518.00;4974867;28;20057;-68
2021/07/19 09:40:07;;;;;;;14.60;12.23;;;;;;;19.32;72.11;100517.09;4974815;28;20054;-67
2021/07/19 09:42:51;;;;;;;14.43;11.40;;;;;;;19.35;72.25;100516.22;4973866;28;20554;-68
2021/07/19 09:45:35;;;;;;;;;;;;;;;19.35;72.39;100524.09;4973853;28;20477;-66
2021/07/19 09:48:25;;;;;;;15.57;11.52;;;;;;;19.36;72.23;100522.34;4974223;28;19965;-68
2021/07/19 09:51:09;;;;;;;13.75;11.40;;;;;;;19.38;72.32;100510.94;4973271;28;20054;-67
2021/07/19 09:54:10;;;;;;;13.98;12.48;;;;;;;19.40;72.10;100511.75;4973609;28;20050;-68
2021/07/19 09:57:00;;;;;;;16.60;12.52;;;;;;;19.43;72.16;100509.09;4973798;28;20093;-67
2021/07/19 10:00:01;;;;;;;15.93;11.85;;;;;;;19.44;72.13;100510.84;4974577;28;20167;-67
2021/07/19 10:02:53;;;;;;;16.63;11.50;;;;;;;19.47;71.92;100504.66;4973216;28;20113;-68
2021/07/19 10:05:37;;;;;;;15.15;13.32;;;;;;;19.48;71.88;100504.66;4973721;28;20079;-67
2021/07/19 10:08:22;;;;;;;15.27;11.75;;;;;;;19.50;71.91;100504.63;4974551;28;20402;-68
2021/07/19 10:11:16;;;;;;;15.88;11.75;;;;;;;19.53;72.06;100514.25;4974023;28;20049;-67
2021/07/19 10:14:01;;;;;;;15.02;11.07;;;;;;;19.52;71.70;100504.63;4974485;28;20197;-68
2021/07/19 10:16:45;;;;;;;;;;;;;;;19.52;71.96;100507.25;4973861;28;20050;-67
2021/07/19 10:19:30;;;;;;;15.07;10.68;;;;;;;19.53;71.88;100495.84;4974683;28;19921;-67
2021/07/19 10:22:17;;;;;;;17.02;11.40;;;;;;;19.55;71.55;100497.53;4973958;28;20054;-67
2021/07/19 10:25:01;;;;;;;14.70;11.73;;;;;;;19.56;71.79;100494.03;4974123;28;20141;-67
2021/07/19 10:27:46;;;;;;;16.98;11.30;;;;;;;19.58;71.56;100500.13;4974334;28;20141;-67
2021/07/19 10:30:30;;;;;;;15.15;11.35;;;;;;;19.60;71.81;100493.09;4973476;28;20058;-67
2021/07/19 10:33:14;;;;;;;16.27;11.80;;;;;;;19.62;71.34;100498.34;4974259;28;20046;-66
2021/07/19 10:36:05;;;;;;;17.27;12.00;;;;;;;19.63;71.46;100497.44;4986666;28;20057;-67
2021/07/19 10:38:55;;;;;;;15.90;12.68;;;;;;;19.62;71.59;100498.34;4973040;28;20054;-67
2021/07/19 10:41:59;;;;;;;15.70;13.10;;;;;;;19.62;71.45;100496.56;4973270;28;20126;-67
2021/07/19 10:44:43;;;;;;;18.95;11.98;;;;;;;19.65;71.42;100497.41;4974439;28;20058;-68
2021/07/19 10:47:28;;;;;;;14.30;11.48;;;;;;;19.65;71.17;100498.28;4974121;28;20046;-68
2021/07/19 10:50:16;;;;;;;15.52;12.10;;;;;;;19.65;71.42;100498.28;4973809;28;20509;-68
2021/07/19 10:53:03;;;;;;;12.88;10.80;;;;;;;19.67;71.17;100499.16;4974383;28;20110;-68
2021/07/19 10:56:07;;;;;;;15.23;12.02;;;;;;;19.67;71.24;100493.88;4973840;28;20054;-68
2021/07/19 10:59:02;;;;;;;17.02;12.60;;;;;;;19.69;71.29;100488.59;4973425;28;20525;-68
2021/07/19 11:01:59;;;;;;;14.25;12.50;;;;;;;19.71;71.46;100487.66;4974376;28;20062;-66
2021/07/19 11:04:51;;;;;;;16.70;12.93;;;;;;;19.73;71.41;100495.56;4977373;28;20093;-68
2021/07/19 11:07:45;;;;;;;14.82;11.07;;;;;;;19.73;71.27;100485.88;4975900;28;20053;-67
2021/07/19 11:10:43;;;;;;;18.08;12.65;;;;;;;19.75;71.10;100483.25;4976576;28;20163;-66
2021/07/19 11:13:29;;;;;;;16.08;11.38;;;;;;;19.75;70.94;100478.00;4976718;28;20113;-68
2021/07/19 11:16:16;;;;;;;15.52;12.27;;;;;;;19.75;71.03;100468.34;4976826;28;20109;-67
2021/07/19 11:19:02;;;;;;;18.00;12.20;;;;;;;19.76;71.10;100472.69;4977341;28;20077;-68
2021/07/19 11:21:51;;;;;;;17.13;12.75;;;;;;;19.78;71.20;100481.44;4976492;28;20066;-68
2021/07/19 11:24:49;;;;;;;16.75;13.50;;;;;;;19.77;71.10;100471.81;4976507;28;20046;-68
2021/07/19 11:27:44;;;;;;;18.77;13.55;;;;;;;19.80;70.87;100478.78;4975914;28;20123;-66
2021/07/19 11:30:28;;;;;;;18.13;13.70;;;;;;;19.81;70.74;100477.03;4975572;28;20049;-65
2021/07/19 11:33:14;;;;;;;17.50;14.05;;;;;;;19.82;70.81;100476.13;4976726;28;20050;-67
2021/07/19 11:36:01;;;;;;;19.70;13.88;;;;;;;19.83;70.70;100476.09;4976583;28;20057;-67
2021/07/19 11:38:48;;;;;;;21.13;14.45;;;;;;;19.84;70.65;100474.34;4975818;28;20097;-68
2021/07/19 11:41:33;;;;;;;16.88;12.90;;;;;;;19.85;70.61;100476.09;4976814;28;20105;-68
2021/07/19 11:44:25;;;;;;;19.95;15.18;;;;;;;19.87;70.67;100471.69;4976845;28;20085;-67
2021/07/19 11:47:17;;;;;;;19.80;13.88;;;;;;;19.89;70.82;100473.44;4976645;28;20137;-67
2021/07/19 11:50:13;;;;;;;19.40;15.25;;;;;;;19.90;70.61;100472.53;4975669;28;20461;-68
2021/07/19 11:53:05;;;;;;;17.00;14.48;;;;;;;19.90;70.49;100467.28;4976105;28;20057;-66
2021/07/19 11:55:56;;;;;;;21.67;15.82;;;;;;;19.90;70.57;100459.38;4975414;28;20131;-66
2021/07/19 11:58:49;;;;;;;19.05;15.35;;;;;;;19.91;70.41;100466.38;4976566;28;20402;-67
2021/07/19 12:01:36;;;;;;;24.92;15.43;;;;;;;19.92;70.46;100452.34;4975432;28;20053;-67
2021/07/19 12:04:21;;;;;;;20.20;15.90;;;;;;;19.96;70.31;100455.78;4977153;28;20523;-68
2021/07/19 12:07:07;;;;;;;19.60;16.40;;;;;;;19.99;70.51;100457.47;4976561;28;20407;-67
2021/07/19 12:10:08;;;;;;;23.95;14.85;;;;;;;19.99;70.43;100452.22;4976396;28;20517;-67
2021/07/19 12:13:13;;;;;;;19.63;15.85;;;;;;;19.99;70.41;100447.84;4975752;28;20054;-67
2021/07/19 12:15:57;;;;;;;19.50;15.18;;;;;;;20.00;70.15;100441.69;4976302;28;20061;-68
2021/07/19 12:19:00;;;;;;;26.38;16.00;;;;;;;20.01;70.27;100448.66;4974963;28;20135;-66
2021/07/19 12:22:03;;;;;;;22.08;16.00;;;;;;;20.03;70.18;100448.66;4975183;28;20081;-67
2021/07/19 12:24:50;;;;;;;19.13;15.82;;;;;;;20.04;70.25;100451.25;4976260;28;20106;-69
2021/07/19 12:27:34;;;;;;;20.25;16.02;;;;;;;20.05;69.88;100452.97;4975987;28;20042;-67
2021/07/19 12:30:36;;;;;;;24.02;17.63;;;;;;;20.05;69.86;100450.34;4975626;28;20137;-69
2021/07/19 12:33:28;;;;;;;20.75;16.98;;;;;;;20.03;69.95;100457.41;4975857;28;20133;-67
2021/07/19 12:36:27;;;;;;;19.55;16.23;;;;;;;20.00;69.90;100457.47;4974507;28;20046;-68
2021/07/19 12:39:17;;;;;;;20.63;16.00;;;;;;;20.00;69.86;100453.97;4974708;28;20066;-67
2021/07/19 12:42:05;;;;;;;21.58;17.35;;;;;;;19.99;69.66;100454.84;4974952;28;20097;-67
2021/07/19 12:44:59;;;;;;;24.35;16.30;;;;;;;19.98;69.85;100448.72;4975825;28;20053;-68
2021/07/19 12:47:48;;;;;;;20.73;16.08;;;;;;;19.99;69.71;100458.38;4974370;28;20097;-68
2021/07/19 12:50:32;;;;;;;20.85;15.95;;;;;;;20.00;69.72;100440.81;4975781;28;20061;-66
2021/07/19 12:53:24;;;;;;;21.63;17.42;;;;;;;20.01;69.76;100445.19;4975864;28;20057;-67
2021/07/19 12:56:18;;;;;;;22.75;16.95;;;;;;;20.03;69.76;100451.28;4973986;28;20054;-65
2021/07/19 12:59:09;;;;;;;21.80;17.85;;;;;;;20.02;69.82;100447.75;4975328;28;20509;-67
2021/07/19 13:02:01;;;;;;;20.08;16.63;;;;;;;20.02;69.77;100439.88;4974353;28;20102;-68
2021/07/19 13:04:50;;;;;;;20.95;17.75;;;;;;;20.01;69.60;100451.28;4975127;28;20142;-66